Arzew, Algeria

6:02 PM CET on July 24, 2014 (GMT +0100)
Es Senia (DAOO) Elev 295 ft | 35.63 °N, 0.60 °W | Change Station

Current weather conditions updated 32 minutes ago

Clear
Clear
81 °F
Feels Like 82 °F
N
12
Wind Variable Wind from North

Tomorrow is forecast to be nearly the same temperature as today.

Today
High -- | Low -- °F
--% Chance of Precip.
Yesterday
High -- | Low -- °F
Precip. -- in
6:02 AM 8:12 PM
Waning Crescent, 5% visible
Pressure 29.80 in
Visibility -9999.0 miles
Clouds
Heat Index 82 °F
Dew Point 61 °F
Humidity 51%
Rainfall 0.00 in
Snow Depth Not available.
UV Not available.
Pollen Not available.
Air Quality Not available.
Flu Activity Not available.
METAR DAOO 241630Z 35010KT CAVOK 27/16 Q1009

More Conditions Fewer Conditions

Pressure 29.80 in
Visibility -9999.0 miles
Clouds
Heat Index 82 °F
Dew Point 61 °F
Humidity 51%
Rainfall 0.00 in
Snow Depth Not available.
UV Not available.
Pollen Not available.
Air Quality Not available.
Flu Activity Not available.
METAR DAOO 241630Z 35010KT CAVOK 27/16 Q1009

More Conditions Fewer Conditions

10-Day Weather Forecast

Almanac

Astronomy

Jul. 24, 2014 Rise Set
Actual Time 6:02 AM CET 8:12 PM CET
Civil Twilight 5:33 AM CET 8:40 PM CET
Nautical Twilight 4:58 AM CET 9:16 PM CET
Astronomical Twilight 4:20 AM CET 9:53 PM CET
Moon 3:57 AM CET 6:17 PM CET
Length of Visible Light 15h 07m
Length of Day
14h 09m
Tomorrow will be 1m 29s shorter.
Waning Crescent, 5% of the Moon is Illuminated
Today
Waning Crescent
Jul 26
New
Aug 3
First Quarter
Aug 10
Full
Aug 17
Last Quarter

Today's Extremes

Country Highs Country Lows

Community

WunderPhotos

Upload Photos

1,737,071 photos uploaded!

Nearby

Snow Depth

Not available.

Earthquake Activity

City Distance Mag. Time & Date
No recent earthquake activity has been reported nearby.
Minimum magnitude displayed is 2.5.

Coastal Water Temperatures

Place Temperature
No Stations Reporting

Nearby Weather Stations

There are no personal weather stations in this area.